Weather at Estrella Sailport Gliderport

Public forecast

Using degrees Fahrenheit for public forecast. Weather courtesy of forecast.io.

Closest aviation weather report (METAR) to Estrella Sailport Gliderport

Closest report is Chandler Municipal Airport, 20.8 nm (38.5 km) ENE. Retrieved 2021/06/20 02:47 UTC (54 minutes ago):

KCHD 200247Z 23010KT 10SM SKC 42/08 A2957

Closest aviation forecast (TAF) to Estrella Sailport Gliderport

Closest forecast is Phoenix Sky Harbor International Airport, 22.4 nm (41.5 km) NNE. Retrieved 2021-06-20 00:39 UTC (3 hours ago):

TAF KPHX 192336Z 2000/2106 27015G22KT P6SM SKC FM200300 25010KT P6SM SKC FM201000 11005KT P6SM FEW150 FEW250 FM201700 26010KT P6SM SKC FM201900 27017G24KT P6SM SKC